sensor_id;sensor_type;location;lat;lon;timestamp;P1;P2;P0
42410;PMS5003;28056;51.112;0.984;2022-08-11T00:00:21;16;16;
42410;PMS5003;28056;51.112;0.984;2022-08-11T00:04:46;11;11;
42410;PMS5003;28056;51.112;0.984;2022-08-11T00:07:16;14;13;
42410;PMS5003;28056;51.112;0.984;2022-08-11T00:09:44;13;13;
42410;PMS5003;28056;51.112;0.984;2022-08-11T00:12:13;14;14;
42410;PMS5003;28056;51.112;0.984;2022-08-11T00:14:42;13;12;
42410;PMS5003;28056;51.112;0.984;2022-08-11T00:17:12;14;12;
42410;PMS5003;28056;51.112;0.984;2022-08-11T00:19:43;12;12;
42410;PMS5003;28056;51.112;0.984;2022-08-11T00:22:11;14;14;
42410;PMS5003;28056;51.112;0.984;2022-08-11T00:24:46;13;12;
42410;PMS5003;28056;51.112;0.984;2022-08-11T00:27:16;15;14;
42410;PMS5003;28056;51.112;0.984;2022-08-11T00:29:51;14;14;
42410;PMS5003;28056;51.112;0.984;2022-08-11T00:32:18;15;12;
42410;PMS5003;28056;51.112;0.984;2022-08-11T00:34:47;10;9;
42410;PMS5003;28056;51.112;0.984;2022-08-11T00:37:17;14;11;
42410;PMS5003;28056;51.112;0.984;2022-08-11T00:39:49;15;13;
42410;PMS5003;28056;51.112;0.984;2022-08-11T00:42:28;14;14;
42410;PMS5003;28056;51.112;0.984;2022-08-11T00:45:21;11;11;
42410;PMS5003;28056;51.112;0.984;2022-08-11T00:47:55;11;11;
42410;PMS5003;28056;51.112;0.984;2022-08-11T00:50:35;13;11;
42410;PMS5003;28056;51.112;0.984;2022-08-11T00:53:45;11;9;
42410;PMS5003;28056;51.112;0.984;2022-08-11T00:56:32;14;13;
42410;PMS5003;28056;51.112;0.984;2022-08-11T00:59:55;14;13;
42410;PMS5003;28056;51.112;0.984;2022-08-11T01:02:38;11;11;
42410;PMS5003;28056;51.112;0.984;2022-08-11T01:05:22;15;13;
42410;PMS5003;28056;51.112;0.984;2022-08-11T01:08:40;11;11;
42410;PMS5003;28056;51.112;0.984;2022-08-11T01:11:35;14;14;
42410;PMS5003;28056;51.112;0.984;2022-08-11T01:15:23;17;15;
42410;PMS5003;28056;51.112;0.984;2022-08-11T01:18:13;14;14;
42410;PMS5003;28056;51.112;0.984;2022-08-11T01:21:25;16;15;
42410;PMS5003;28056;51.112;0.984;2022-08-11T01:24:39;15;13;
42410;PMS5003;28056;51.112;0.984;2022-08-11T01:29:51;21;16;
42410;PMS5003;28056;51.112;0.984;2022-08-11T01:32:42;17;13;
42410;PMS5003;28056;51.112;0.984;2022-08-11T01:36:43;16;15;
42410;PMS5003;28056;51.112;0.984;2022-08-11T01:39:31;16;14;
42410;PMS5003;28056;51.112;0.984;2022-08-11T01:42:53;13;12;
42410;PMS5003;28056;51.112;0.984;2022-08-11T01:46:12;15;14;
42410;PMS5003;28056;51.112;0.984;2022-08-11T01:48:48;12;12;
42410;PMS5003;28056;51.112;0.984;2022-08-11T01:51:30;17;15;
42410;PMS5003;28056;51.112;0.984;2022-08-11T01:54:13;16;14;
42410;PMS5003;28056;51.112;0.984;2022-08-11T01:56:54;14;14;
42410;PMS5003;28056;51.112;0.984;2022-08-11T01:59:33;15;15;
42410;PMS5003;28056;51.112;0.984;2022-08-11T02:02:10;16;16;
42410;PMS5003;28056;51.112;0.984;2022-08-11T02:04:55;19;17;
42410;PMS5003;28056;51.112;0.984;2022-08-11T02:07:31;15;15;
42410;PMS5003;28056;51.112;0.984;2022-08-11T02:10:13;14;12;
42410;PMS5003;28056;51.112;0.984;2022-08-11T02:12:49;14;14;
42410;PMS5003;28056;51.112;0.984;2022-08-11T02:15:23;20;19;
42410;PMS5003;28056;51.112;0.984;2022-08-11T02:17:59;16;14;
42410;PMS5003;28056;51.112;0.984;2022-08-11T02:20:35;17;16;
42410;PMS5003;28056;51.112;0.984;2022-08-11T02:23:12;16;15;
42410;PMS5003;28056;51.112;0.984;2022-08-11T02:25:49;18;18;
42410;PMS5003;28056;51.112;0.984;2022-08-11T02:28:26;14;14;
42410;PMS5003;28056;51.112;0.984;2022-08-11T02:31:01;16;14;
42410;PMS5003;28056;51.112;0.984;2022-08-11T02:33:34;14;14;
42410;PMS5003;28056;51.112;0.984;2022-08-11T02:36:09;18;17;
42410;PMS5003;28056;51.112;0.984;2022-08-11T02:38:45;14;14;
42410;PMS5003;28056;51.112;0.984;2022-08-11T02:41:22;18;14;
42410;PMS5003;28056;51.112;0.984;2022-08-11T02:44:00;19;15;
42410;PMS5003;28056;51.112;0.984;2022-08-11T02:46:44;14;12;
42410;PMS5003;28056;51.112;0.984;2022-08-11T02:49:25;16;15;
42410;PMS5003;28056;51.112;0.984;2022-08-11T02:52:07;17;15;
42410;PMS5003;28056;51.112;0.984;2022-08-11T02:54:48;19;17;
42410;PMS5003;28056;51.112;0.984;2022-08-11T02:57:27;19;18;
42410;PMS5003;28056;51.112;0.984;2022-08-11T03:00:04;24;21;
42410;PMS5003;28056;51.112;0.984;2022-08-11T03:02:41;26;22;
42410;PMS5003;28056;51.112;0.984;2022-08-11T03:05:20;19;19;
42410;PMS5003;28056;51.112;0.984;2022-08-11T03:08:42;22;21;
42410;PMS5003;28056;51.112;0.984;2022-08-11T03:11:18;21;18;
42410;PMS5003;28056;51.112;0.984;2022-08-11T03:14:02;18;17;
42410;PMS5003;28056;51.112;0.984;2022-08-11T03:16:40;18;18;
42410;PMS5003;28056;51.112;0.984;2022-08-11T03:19:21;26;23;
42410;PMS5003;28056;51.112;0.984;2022-08-11T03:21:58;26;23;
42410;PMS5003;28056;51.112;0.984;2022-08-11T03:24:38;23;20;
42410;PMS5003;28056;51.112;0.984;2022-08-11T03:27:20;21;18;
42410;PMS5003;28056;51.112;0.984;2022-08-11T03:30:02;24;23;
42410;PMS5003;28056;51.112;0.984;2022-08-11T03:32:34;21;20;
42410;PMS5003;28056;51.112;0.984;2022-08-11T03:35:17;22;18;
42410;PMS5003;28056;51.112;0.984;2022-08-11T03:37:47;22;19;
42410;PMS5003;28056;51.112;0.984;2022-08-11T03:40:27;20;20;
42410;PMS5003;28056;51.112;0.984;2022-08-11T03:43:08;21;21;
42410;PMS5003;28056;51.112;0.984;2022-08-11T03:45:50;19;18;
42410;PMS5003;28056;51.112;0.984;2022-08-11T03:48:28;20;19;
42410;PMS5003;28056;51.112;0.984;2022-08-11T03:51:12;25;21;
42410;PMS5003;28056;51.112;0.984;2022-08-11T03:53:57;23;21;
42410;PMS5003;28056;51.112;0.984;2022-08-11T03:56:41;25;23;
42410;PMS5003;28056;51.112;0.984;2022-08-11T03:59:46;23;23;
42410;PMS5003;28056;51.112;0.984;2022-08-11T04:02:40;33;25;
42410;PMS5003;28056;51.112;0.984;2022-08-11T04:05:48;24;21;
42410;PMS5003;28056;51.112;0.984;2022-08-11T04:09:22;29;25;
42410;PMS5003;28056;51.112;0.984;2022-08-11T04:12:21;23;21;
42410;PMS5003;28056;51.112;0.984;2022-08-11T04:15:12;29;26;
42410;PMS5003;28056;51.112;0.984;2022-08-11T04:18:29;28;26;
42410;PMS5003;28056;51.112;0.984;2022-08-11T04:21:19;31;29;
42410;PMS5003;28056;51.112;0.984;2022-08-11T04:24:07;29;26;
42410;PMS5003;28056;51.112;0.984;2022-08-11T04:27:01;28;26;
42410;PMS5003;28056;51.112;0.984;2022-08-11T04:29:49;28;27;
42410;PMS5003;28056;51.112;0.984;2022-08-11T04:32:38;29;27;
42410;PMS5003;28056;51.112;0.984;2022-08-11T04:35:38;26;26;
42410;PMS5003;28056;51.112;0.984;2022-08-11T04:38:18;28;26;
42410;PMS5003;28056;51.112;0.984;2022-08-11T04:41:59;26;25;
42410;PMS5003;28056;51.112;0.984;2022-08-11T04:44:50;31;27;
42410;PMS5003;28056;51.112;0.984;2022-08-11T04:47:19;31;27;
42410;PMS5003;28056;51.112;0.984;2022-08-11T04:50:00;34;29;
42410;PMS5003;28056;51.112;0.984;2022-08-11T04:53:07;28;27;
42410;PMS5003;28056;51.112;0.984;2022-08-11T04:56:05;32;29;
42410;PMS5003;28056;51.112;0.984;2022-08-11T04:58:43;27;27;
42410;PMS5003;28056;51.112;0.984;2022-08-11T05:01:22;25;25;
42410;PMS5003;28056;51.112;0.984;2022-08-11T05:04:37;28;27;
42410;PMS5003;28056;51.112;0.984;2022-08-11T05:07:23;29;28;
42410;PMS5003;28056;51.112;0.984;2022-08-11T05:09:46;29;28;
42410;PMS5003;28056;51.112;0.984;2022-08-11T05:12:33;27;26;
42410;PMS5003;28056;51.112;0.984;2022-08-11T05:15:09;29;28;
42410;PMS5003;28056;51.112;0.984;2022-08-11T05:17:41;38;33;
42410;PMS5003;28056;51.112;0.984;2022-08-11T05:20:11;28;27;
42410;PMS5003;28056;51.112;0.984;2022-08-11T05:22:41;36;29;
42410;PMS5003;28056;51.112;0.984;2022-08-11T05:25:18;30;28;
42410;PMS5003;28056;51.112;0.984;2022-08-11T05:27:52;33;32;
42410;PMS5003;28056;51.112;0.984;2022-08-11T05:30:28;32;27;
42410;PMS5003;28056;51.112;0.984;2022-08-11T05:32:58;31;27;
42410;PMS5003;28056;51.112;0.984;2022-08-11T05:35:31;33;29;
42410;PMS5003;28056;51.112;0.984;2022-08-11T05:38:04;31;28;
42410;PMS5003;28056;51.112;0.984;2022-08-11T05:40:38;28;27;
42410;PMS5003;28056;51.112;0.984;2022-08-11T05:43:13;32;32;
42410;PMS5003;28056;51.112;0.984;2022-08-11T05:45:42;35;30;
42410;PMS5003;28056;51.112;0.984;2022-08-11T05:48:22;31;30;
42410;PMS5003;28056;51.112;0.984;2022-08-11T05:50:58;35;27;
42410;PMS5003;28056;51.112;0.984;2022-08-11T05:53:27;29;26;
42410;PMS5003;28056;51.112;0.984;2022-08-11T05:55:56;28;26;
42410;PMS5003;28056;51.112;0.984;2022-08-11T05:58:25;29;29;
42410;PMS5003;28056;51.112;0.984;2022-08-11T06:00:58;28;23;
42410;PMS5003;28056;51.112;0.984;2022-08-11T06:03:27;26;23;
42410;PMS5003;28056;51.112;0.984;2022-08-11T06:05:56;30;28;
42410;PMS5003;28056;51.112;0.984;2022-08-11T06:08:26;27;24;
42410;PMS5003;28056;51.112;0.984;2022-08-11T06:10:59;25;23;
42410;PMS5003;28056;51.112;0.984;2022-08-11T06:13:29;24;23;
42410;PMS5003;28056;51.112;0.984;2022-08-11T06:15:58;23;23;
42410;PMS5003;28056;51.112;0.984;2022-08-11T06:18:26;26;21;
42410;PMS5003;28056;51.112;0.984;2022-08-11T06:20:55;27;26;
42410;PMS5003;28056;51.112;0.984;2022-08-11T06:23:29;27;23;
42410;PMS5003;28056;51.112;0.984;2022-08-11T06:25:58;24;24;
42410;PMS5003;28056;51.112;0.984;2022-08-11T06:28:28;29;25;
42410;PMS5003;28056;51.112;0.984;2022-08-11T06:30:57;25;21;
42410;PMS5003;28056;51.112;0.984;2022-08-11T06:33:29;25;24;
42410;PMS5003;28056;51.112;0.984;2022-08-11T06:36:02;24;24;
42410;PMS5003;28056;51.112;0.984;2022-08-11T06:38:39;22;21;
42410;PMS5003;28056;51.112;0.984;2022-08-11T06:41:25;21;20;
42410;PMS5003;28056;51.112;0.984;2022-08-11T06:44:04;25;23;
42410;PMS5003;28056;51.112;0.984;2022-08-11T06:46:41;24;22;
42410;PMS5003;28056;51.112;0.984;2022-08-11T06:49:13;26;24;
42410;PMS5003;28056;51.112;0.984;2022-08-11T06:51:42;25;23;
42410;PMS5003;28056;51.112;0.984;2022-08-11T06:54:14;30;27;
42410;PMS5003;28056;51.112;0.984;2022-08-11T06:56:42;23;22;
42410;PMS5003;28056;51.112;0.984;2022-08-11T06:59:14;23;22;
42410;PMS5003;28056;51.112;0.984;2022-08-11T07:01:46;24;22;
42410;PMS5003;28056;51.112;0.984;2022-08-11T07:04:23;28;26;
42410;PMS5003;28056;51.112;0.984;2022-08-11T07:07:04;23;21;
42410;PMS5003;28056;51.112;0.984;2022-08-11T07:09:58;23;20;
42410;PMS5003;28056;51.112;0.984;2022-08-11T07:12:43;18;18;
42410;PMS5003;28056;51.112;0.984;2022-08-11T07:15:16;22;18;
42410;PMS5003;28056;51.112;0.984;2022-08-11T07:17:44;19;19;
42410;PMS5003;28056;51.112;0.984;2022-08-11T07:20:15;22;19;
42410;PMS5003;28056;51.112;0.984;2022-08-11T07:22:45;20;19;
42410;PMS5003;28056;51.112;0.984;2022-08-11T07:25:21;20;19;
42410;PMS5003;28056;51.112;0.984;2022-08-11T07:27:50;19;19;
42410;PMS5003;28056;51.112;0.984;2022-08-11T07:30:24;24;22;
42410;PMS5003;28056;51.112;0.984;2022-08-11T07:32:53;22;18;
42410;PMS5003;28056;51.112;0.984;2022-08-11T07:35:23;17;15;
42410;PMS5003;28056;51.112;0.984;2022-08-11T07:37:58;24;19;
42410;PMS5003;28056;51.112;0.984;2022-08-11T07:40:28;18;16;
42410;PMS5003;28056;51.112;0.984;2022-08-11T07:42:56;18;18;
42410;PMS5003;28056;51.112;0.984;2022-08-11T07:45:26;17;15;
42410;PMS5003;28056;51.112;0.984;2022-08-11T07:47:55;18;16;
42410;PMS5003;28056;51.112;0.984;2022-08-11T07:50:24;15;15;
42410;PMS5003;28056;51.112;0.984;2022-08-11T07:52:52;20;17;
42410;PMS5003;28056;51.112;0.984;2022-08-11T07:55:21;15;15;
42410;PMS5003;28056;51.112;0.984;2022-08-11T07:57:49;13;13;
42410;PMS5003;28056;51.112;0.984;2022-08-11T08:00:18;15;13;
42410;PMS5003;28056;51.112;0.984;2022-08-11T08:02:46;14;14;
42410;PMS5003;28056;51.112;0.984;2022-08-11T08:05:14;16;15;
42410;PMS5003;28056;51.112;0.984;2022-08-11T08:07:43;15;15;
42410;PMS5003;28056;51.112;0.984;2022-08-11T08:10:11;12;12;
42410;PMS5003;28056;51.112;0.984;2022-08-11T08:12:38;13;13;
42410;PMS5003;28056;51.112;0.984;2022-08-11T08:15:07;18;15;
42410;PMS5003;28056;51.112;0.984;2022-08-11T08:17:39;18;17;
42410;PMS5003;28056;51.112;0.984;2022-08-11T08:20:09;19;17;
42410;PMS5003;28056;51.112;0.984;2022-08-11T08:22:38;14;14;
42410;PMS5003;28056;51.112;0.984;2022-08-11T08:25:06;12;12;
42410;PMS5003;28056;51.112;0.984;2022-08-11T08:27:35;12;12;
42410;PMS5003;28056;51.112;0.984;2022-08-11T08:30:04;17;13;
42410;PMS5003;28056;51.112;0.984;2022-08-11T08:32:33;11;11;
42410;PMS5003;28056;51.112;0.984;2022-08-11T08:35:06;12;12;
42410;PMS5003;28056;51.112;0.984;2022-08-11T08:37:36;10;9;
42410;PMS5003;28056;51.112;0.984;2022-08-11T08:40:05;15;12;
42410;PMS5003;28056;51.112;0.984;2022-08-11T08:42:36;11;9;
42410;PMS5003;28056;51.112;0.984;2022-08-11T08:45:08;11;11;
42410;PMS5003;28056;51.112;0.984;2022-08-11T08:47:40;10;10;
42410;PMS5003;28056;51.112;0.984;2022-08-11T08:50:11;11;11;
42410;PMS5003;28056;51.112;0.984;2022-08-11T08:52:44;12;11;
42410;PMS5003;28056;51.112;0.984;2022-08-11T08:55:17;11;9;
42410;PMS5003;28056;51.112;0.984;2022-08-11T08:57:47;12;12;
42410;PMS5003;28056;51.112;0.984;2022-08-11T09:00:16;12;12;
42410;PMS5003;28056;51.112;0.984;2022-08-11T09:02:44;10;7;
42410;PMS5003;28056;51.112;0.984;2022-08-11T09:05:11;15;10;
42410;PMS5003;28056;51.112;0.984;2022-08-11T09:07:42;8;8;
42410;PMS5003;28056;51.112;0.984;2022-08-11T09:10:10;12;11;
42410;PMS5003;28056;51.112;0.984;2022-08-11T09:12:40;13;13;
42410;PMS5003;28056;51.112;0.984;2022-08-11T09:15:08;11;11;
42410;PMS5003;28056;51.112;0.984;2022-08-11T09:17:38;11;11;
42410;PMS5003;28056;51.112;0.984;2022-08-11T09:20:08;12;10;
42410;PMS5003;28056;51.112;0.984;2022-08-11T09:22:38;9;9;
42410;PMS5003;28056;51.112;0.984;2022-08-11T09:25:08;11;10;
42410;PMS5003;28056;51.112;0.984;2022-08-11T09:27:37;11;10;
42410;PMS5003;28056;51.112;0.984;2022-08-11T09:30:05;10;9;
42410;PMS5003;28056;51.112;0.984;2022-08-11T09:32:37;10;9;
42410;PMS5003;28056;51.112;0.984;2022-08-11T09:35:06;8;8;
42410;PMS5003;28056;51.112;0.984;2022-08-11T09:37:35;7;6;
42410;PMS5003;28056;51.112;0.984;2022-08-11T09:40:03;9;9;
42410;PMS5003;28056;51.112;0.984;2022-08-11T09:42:33;11;9;
42410;PMS5003;28056;51.112;0.984;2022-08-11T09:45:02;10;9;
42410;PMS5003;28056;51.112;0.984;2022-08-11T09:47:30;11;9;
42410;PMS5003;28056;51.112;0.984;2022-08-11T09:50:01;10;9;
42410;PMS5003;28056;51.112;0.984;2022-08-11T09:52:31;8;8;
42410;PMS5003;28056;51.112;0.984;2022-08-11T09:55:05;10;9;
42410;PMS5003;28056;51.112;0.984;2022-08-11T09:57:35;9;9;
42410;PMS5003;28056;51.112;0.984;2022-08-11T10:00:06;7;7;
42410;PMS5003;28056;51.112;0.984;2022-08-11T10:02:38;5;5;
42410;PMS5003;28056;51.112;0.984;2022-08-11T10:05:08;8;8;
42410;PMS5003;28056;51.112;0.984;2022-08-11T10:07:37;7;7;
42410;PMS5003;28056;51.112;0.984;2022-08-11T10:10:05;7;6;
42410;PMS5003;28056;51.112;0.984;2022-08-11T10:12:36;6;6;
42410;PMS5003;28056;51.112;0.984;2022-08-11T10:15:08;8;7;
42410;PMS5003;28056;51.112;0.984;2022-08-11T10:17:38;6;6;
42410;PMS5003;28056;51.112;0.984;2022-08-11T10:20:15;7;7;
42410;PMS5003;28056;51.112;0.984;2022-08-11T10:22:42;7;7;
42410;PMS5003;28056;51.112;0.984;2022-08-11T10:25:09;7;7;
42410;PMS5003;28056;51.112;0.984;2022-08-11T10:27:38;7;7;
42410;PMS5003;28056;51.112;0.984;2022-08-11T10:30:10;5;5;
42410;PMS5003;28056;51.112;0.984;2022-08-11T10:32:38;7;7;
42410;PMS5003;28056;51.112;0.984;2022-08-11T10:35:06;7;7;
42410;PMS5003;28056;51.112;0.984;2022-08-11T10:37:35;4;4;
42410;PMS5003;28056;51.112;0.984;2022-08-11T10:40:03;8;6;
42410;PMS5003;28056;51.112;0.984;2022-08-11T10:42:32;6;6;
42410;PMS5003;28056;51.112;0.984;2022-08-11T10:45:02;7;5;
42410;PMS5003;28056;51.112;0.984;2022-08-11T10:47:32;10;8;
42410;PMS5003;28056;51.112;0.984;2022-08-11T10:49:59;6;6;
42410;PMS5003;28056;51.112;0.984;2022-08-11T10:52:27;7;5;
42410;PMS5003;28056;51.112;0.984;2022-08-11T10:54:56;5;5;
42410;PMS5003;28056;51.112;0.984;2022-08-11T10:57:23;5;5;
42410;PMS5003;28056;51.112;0.984;2022-08-11T10:59:52;4;4;
42410;PMS5003;28056;51.112;0.984;2022-08-11T11:02:20;7;7;
42410;PMS5003;28056;51.112;0.984;2022-08-11T11:04:55;7;7;
42410;PMS5003;28056;51.112;0.984;2022-08-11T11:07:35;7;6;
42410;PMS5003;28056;51.112;0.984;2022-08-11T11:10:06;9;7;
42410;PMS5003;28056;51.112;0.984;2022-08-11T11:12:35;7;7;
42410;PMS5003;28056;51.112;0.984;2022-08-11T11:15:08;8;6;
42410;PMS5003;28056;51.112;0.984;2022-08-11T11:17:39;7;7;
42410;PMS5003;28056;51.112;0.984;2022-08-11T11:20:09;4;4;
42410;PMS5003;28056;51.112;0.984;2022-08-11T11:22:41;6;6;
42410;PMS5003;28056;51.112;0.984;2022-08-11T11:25:15;5;5;
42410;PMS5003;28056;51.112;0.984;2022-08-11T11:28:11;5;5;
42410;PMS5003;28056;51.112;0.984;2022-08-11T11:30:57;6;6;
42410;PMS5003;28056;51.112;0.984;2022-08-11T11:33:40;5;5;
42410;PMS5003;28056;51.112;0.984;2022-08-11T11:36:24;8;8;
42410;PMS5003;28056;51.112;0.984;2022-08-11T11:38:58;6;6;
42410;PMS5003;28056;51.112;0.984;2022-08-11T11:41:25;8;6;
42410;PMS5003;28056;51.112;0.984;2022-08-11T11:43:55;9;7;
42410;PMS5003;28056;51.112;0.984;2022-08-11T11:46:24;5;5;
42410;PMS5003;28056;51.112;0.984;2022-08-11T11:48:54;7;7;
42410;PMS5003;28056;51.112;0.984;2022-08-11T11:51:22;6;6;
42410;PMS5003;28056;51.112;0.984;2022-08-11T11:53:51;8;8;
42410;PMS5003;28056;51.112;0.984;2022-08-11T11:56:20;8;8;
42410;PMS5003;28056;51.112;0.984;2022-08-11T11:58:50;7;7;
42410;PMS5003;28056;51.112;0.984;2022-08-11T12:01:19;8;6;
42410;PMS5003;28056;51.112;0.984;2022-08-11T12:03:49;6;6;
42410;PMS5003;28056;51.112;0.984;2022-08-11T12:06:19;5;5;
42410;PMS5003;28056;51.112;0.984;2022-08-11T12:08:49;6;6;
42410;PMS5003;28056;51.112;0.984;2022-08-11T12:11:19;7;7;
42410;PMS5003;28056;51.112;0.984;2022-08-11T12:13:49;9;7;
42410;PMS5003;28056;51.112;0.984;2022-08-11T12:16:18;6;6;
42410;PMS5003;28056;51.112;0.984;2022-08-11T12:18:49;7;7;
42410;PMS5003;28056;51.112;0.984;2022-08-11T12:21:18;7;7;
42410;PMS5003;28056;51.112;0.984;2022-08-11T12:23:47;8;8;
42410;PMS5003;28056;51.112;0.984;2022-08-11T12:26:16;7;7;
42410;PMS5003;28056;51.112;0.984;2022-08-11T12:28:44;8;7;
42410;PMS5003;28056;51.112;0.984;2022-08-11T12:31:12;8;8;
42410;PMS5003;28056;51.112;0.984;2022-08-11T12:33:41;6;6;
42410;PMS5003;28056;51.112;0.984;2022-08-11T12:36:08;8;7;
42410;PMS5003;28056;51.112;0.984;2022-08-11T12:38:39;6;6;
42410;PMS5003;28056;51.112;0.984;2022-08-11T12:41:09;6;6;
42410;PMS5003;28056;51.112;0.984;2022-08-11T12:43:37;8;8;
42410;PMS5003;28056;51.112;0.984;2022-08-11T12:46:10;9;9;
42410;PMS5003;28056;51.112;0.984;2022-08-11T12:48:43;9;8;
42410;PMS5003;28056;51.112;0.984;2022-08-11T12:51:15;10;10;
42410;PMS5003;28056;51.112;0.984;2022-08-11T12:53:50;8;8;
42410;PMS5003;28056;51.112;0.984;2022-08-11T12:56:21;11;8;
42410;PMS5003;28056;51.112;0.984;2022-08-11T12:58:50;7;7;
42410;PMS5003;28056;51.112;0.984;2022-08-11T13:01:20;8;8;
42410;PMS5003;28056;51.112;0.984;2022-08-11T13:03:47;5;5;
42410;PMS5003;28056;51.112;0.984;2022-08-11T13:06:14;8;8;
42410;PMS5003;28056;51.112;0.984;2022-08-11T13:08:43;11;8;
42410;PMS5003;28056;51.112;0.984;2022-08-11T13:11:11;8;8;
42410;PMS5003;28056;51.112;0.984;2022-08-11T13:13:42;8;8;
42410;PMS5003;28056;51.112;0.984;2022-08-11T13:16:12;8;8;
42410;PMS5003;28056;51.112;0.984;2022-08-11T13:18:40;8;8;
42410;PMS5003;28056;51.112;0.984;2022-08-11T13:21:10;8;8;
42410;PMS5003;28056;51.112;0.984;2022-08-11T13:23:39;8;8;
42410;PMS5003;28056;51.112;0.984;2022-08-11T13:26:08;10;8;
42410;PMS5003;28056;51.112;0.984;2022-08-11T13:28:36;10;10;
42410;PMS5003;28056;51.112;0.984;2022-08-11T13:31:05;11;11;
42410;PMS5003;28056;51.112;0.984;2022-08-11T13:33:33;11;10;
42410;PMS5003;28056;51.112;0.984;2022-08-11T13:36:05;10;10;
42410;PMS5003;28056;51.112;0.984;2022-08-11T13:38:34;9;9;
42410;PMS5003;28056;51.112;0.984;2022-08-11T13:41:03;9;9;
42410;PMS5003;28056;51.112;0.984;2022-08-11T13:43:31;10;10;
42410;PMS5003;28056;51.112;0.984;2022-08-11T13:45:58;10;10;
42410;PMS5003;28056;51.112;0.984;2022-08-11T13:48:26;11;10;
42410;PMS5003;28056;51.112;0.984;2022-08-11T13:50:54;12;12;
42410;PMS5003;28056;51.112;0.984;2022-08-11T13:53:23;9;9;
42410;PMS5003;28056;51.112;0.984;2022-08-11T13:55:52;11;11;
42410;PMS5003;28056;51.112;0.984;2022-08-11T13:58:20;10;8;
42410;PMS5003;28056;51.112;0.984;2022-08-11T14:00:50;10;10;
42410;PMS5003;28056;51.112;0.984;2022-08-11T14:03:20;11;11;
42410;PMS5003;28056;51.112;0.984;2022-08-11T14:05:51;10;10;
42410;PMS5003;28056;51.112;0.984;2022-08-11T14:08:24;11;10;
42410;PMS5003;28056;51.112;0.984;2022-08-11T14:10:52;11;11;
42410;PMS5003;28056;51.112;0.984;2022-08-11T14:13:25;10;10;
42410;PMS5003;28056;51.112;0.984;2022-08-11T14:15:53;11;11;
42410;PMS5003;28056;51.112;0.984;2022-08-11T14:18:26;11;11;
42410;PMS5003;28056;51.112;0.984;2022-08-11T14:20:56;8;8;
42410;PMS5003;28056;51.112;0.984;2022-08-11T14:23:26;12;11;
42410;PMS5003;28056;51.112;0.984;2022-08-11T14:25:57;9;9;
42410;PMS5003;28056;51.112;0.984;2022-08-11T14:28:26;11;9;
42410;PMS5003;28056;51.112;0.984;2022-08-11T14:28:32;11;9;
42410;PMS5003;28056;51.112;0.984;2022-08-11T14:31:01;11;11;
42410;PMS5003;28056;51.112;0.984;2022-08-11T14:33:29;11;11;
42410;PMS5003;28056;51.112;0.984;2022-08-11T14:36:01;10;10;
42410;PMS5003;28056;51.112;0.984;2022-08-11T14:38:30;9;9;
42410;PMS5003;28056;51.112;0.984;2022-08-11T14:40:59;10;10;
42410;PMS5003;28056;51.112;0.984;2022-08-11T14:43:28;9;9;
42410;PMS5003;28056;51.112;0.984;2022-08-11T14:45:56;9;9;
42410;PMS5003;28056;51.112;0.984;2022-08-11T14:48:24;11;9;
42410;PMS5003;28056;51.112;0.984;2022-08-11T14:50:52;9;9;
42410;PMS5003;28056;51.112;0.984;2022-08-11T14:53:22;10;10;
42410;PMS5003;28056;51.112;0.984;2022-08-11T14:55:49;9;9;
42410;PMS5003;28056;51.112;0.984;2022-08-11T14:58:19;13;11;
42410;PMS5003;28056;51.112;0.984;2022-08-11T15:00:50;12;11;
42410;PMS5003;28056;51.112;0.984;2022-08-11T15:03:18;9;9;
42410;PMS5003;28056;51.112;0.984;2022-08-11T15:05:49;7;7;
42410;PMS5003;28056;51.112;0.984;2022-08-11T15:08:18;11;11;
42410;PMS5003;28056;51.112;0.984;2022-08-11T15:10:47;10;10;
42410;PMS5003;28056;51.112;0.984;2022-08-11T15:13:15;9;9;
42410;PMS5003;28056;51.112;0.984;2022-08-11T15:15:44;10;10;
42410;PMS5003;28056;51.112;0.984;2022-08-11T15:18:12;10;10;
42410;PMS5003;28056;51.112;0.984;2022-08-11T15:20:42;12;10;
42410;PMS5003;28056;51.112;0.984;2022-08-11T15:23:10;12;11;
42410;PMS5003;28056;51.112;0.984;2022-08-11T15:25:37;12;12;
42410;PMS5003;28056;51.112;0.984;2022-08-11T15:28:08;12;12;
42410;PMS5003;28056;51.112;0.984;2022-08-11T15:30:37;11;11;
42410;PMS5003;28056;51.112;0.984;2022-08-11T15:33:06;11;10;
42410;PMS5003;28056;51.112;0.984;2022-08-11T15:35:35;10;9;
42410;PMS5003;28056;51.112;0.984;2022-08-11T15:38:03;9;9;
42410;PMS5003;28056;51.112;0.984;2022-08-11T15:40:35;10;10;
42410;PMS5003;28056;51.112;0.984;2022-08-11T15:43:06;8;8;
42410;PMS5003;28056;51.112;0.984;2022-08-11T15:45:37;8;8;
42410;PMS5003;28056;51.112;0.984;2022-08-11T15:48:06;13;11;
42410;PMS5003;28056;51.112;0.984;2022-08-11T15:50:38;12;11;
42410;PMS5003;28056;51.112;0.984;2022-08-11T15:53:09;8;8;
42410;PMS5003;28056;51.112;0.984;2022-08-11T15:55:43;12;12;
42410;PMS5003;28056;51.112;0.984;2022-08-11T15:58:13;10;10;
42410;PMS5003;28056;51.112;0.984;2022-08-11T16:00:44;11;11;
42410;PMS5003;28056;51.112;0.984;2022-08-11T16:03:13;10;10;
42410;PMS5003;28056;51.112;0.984;2022-08-11T16:05:43;10;10;
42410;PMS5003;28056;51.112;0.984;2022-08-11T16:08:13;12;12;
42410;PMS5003;28056;51.112;0.984;2022-08-11T16:10:45;10;10;
42410;PMS5003;28056;51.112;0.984;2022-08-11T16:13:14;10;10;
42410;PMS5003;28056;51.112;0.984;2022-08-11T16:15:44;10;10;
42410;PMS5003;28056;51.112;0.984;2022-08-11T16:18:15;9;9;
42410;PMS5003;28056;51.112;0.984;2022-08-11T16:20:47;8;8;
42410;PMS5003;28056;51.112;0.984;2022-08-11T16:23:17;9;8;
42410;PMS5003;28056;51.112;0.984;2022-08-11T16:25:46;11;11;
42410;PMS5003;28056;51.112;0.984;2022-08-11T16:28:15;10;10;
42410;PMS5003;28056;51.112;0.984;2022-08-11T16:30:45;9;9;
42410;PMS5003;28056;51.112;0.984;2022-08-11T16:33:13;10;10;
42410;PMS5003;28056;51.112;0.984;2022-08-11T16:35:42;10;10;
42410;PMS5003;28056;51.112;0.984;2022-08-11T16:38:10;9;9;
42410;PMS5003;28056;51.112;0.984;2022-08-11T16:40:40;10;10;
42410;PMS5003;28056;51.112;0.984;2022-08-11T16:43:14;9;9;
42410;PMS5003;28056;51.112;0.984;2022-08-11T16:45:43;10;10;
42410;PMS5003;28056;51.112;0.984;2022-08-11T16:48:11;9;9;
42410;PMS5003;28056;51.112;0.984;2022-08-11T16:50:40;9;9;
42410;PMS5003;28056;51.112;0.984;2022-08-11T16:53:08;8;8;
42410;PMS5003;28056;51.112;0.984;2022-08-11T16:55:35;8;7;
42410;PMS5003;28056;51.112;0.984;2022-08-11T16:58:03;8;8;
42410;PMS5003;28056;51.112;0.984;2022-08-11T17:00:32;10;10;
42410;PMS5003;28056;51.112;0.984;2022-08-11T17:03:00;8;8;
42410;PMS5003;28056;51.112;0.984;2022-08-11T17:05:30;8;8;
42410;PMS5003;28056;51.112;0.984;2022-08-11T17:08:01;8;8;
42410;PMS5003;28056;51.112;0.984;2022-08-11T17:10:32;9;8;
42410;PMS5003;28056;51.112;0.984;2022-08-11T17:13:04;9;9;
42410;PMS5003;28056;51.112;0.984;2022-08-11T17:15:33;7;7;
42410;PMS5003;28056;51.112;0.984;2022-08-11T17:18:02;11;11;
42410;PMS5003;28056;51.112;0.984;2022-08-11T17:20:33;9;9;